Aviation Digital Data Service (ADDS)

Output produced by METARs form (0855 UTC 19 November 2018)
found at http://www.aviationweather.gov/metar/data/
 
LFRN 190830Z AUTO 03007KT CAVOK 02/M01 Q1014 NOSIG
TAF LFRN 190500Z 1906/2006 03010KT CAVOK 
     TEMPO 2000/2006 BKN015